Accueil
METAR-TAF:

METAR-TAF

Aéroports :

Jendouba, Tunisie

latitude: 36-29N, longitude: 008-48E, altitude: 143 m

Observation

Le bulletin a été fait il y a 41 minutes, à 22:00 UTC
Vent calme
Température 25°C
Humidité 65%
Pression 1015 hPa
Visibilité: 8000 m
Nuages épars à une hauteur de 2000 ft
Nuages épars à une hauteur de 3000 ft

METAR: DTTN 232200Z 00000KT 8000 SCT020 SCT030 25/18 Q1015

Heure: 23:41 (22:41 UTC)


TAF: absent

Observations et prévisions météorologiques de plus de 4000 aéroports (messages METAR et TAF).

Les stations disponibles sont représentées par des disques jaunes et rouges sur la carte.

Passer la souris dessus pour voir le nom de la station.

Cliquer dessus pour voir les observations et prévisions météorologiques.

Pour changer de carte: cliquez sur les boutons verts avec une croix noire pour zoomer, sur le bouton vert avec un tiret pour effectuer un zoom arrière, ou sur les flèches vertes pour les cartes adjacentes.


METAR-TAF: